Historyczne dane pomiarowe

Dodano dane terminowe – wersja testowa.

Dane z okresu 1951-2019

Wersja bazy: 1.34 [2019-03-16, lista zmian], aktualizacja planowana na 2019-04-15

Dane meteo z obszaru Polski uzyskane na podstawie danych udostępnionych przez Instytut Meteorologii i Gospodarki Wodnej – Państwowy Instytut Badawczy.

 

Wybierz Datę:    

       

TemperaturaWilgotnośćWiatrCiśnienieOpadyŚniegCzas trwania zjawisk
 Stacja t tx tn tng RH VA  wxwx mslp ppp RRR   cm mm wxwxwxwxwxwxwx
1964-05-15 10.0 13.7 4.8--- 5.7 3.3---- 0.0------------
1964-05-16 11.1 17.0 7.2--- 4.0 3.7---- 0.0------------
1964-05-17 11.6 13.6 8.6--- 7.7 2.3---- 0.0------------
1964-05-18 8.3 12.4 5.3--- 3.0 2.3---- 0.0------------
1964-05-19 8.5 15.0 -0.1--- 0.0 1.7---- 0.0------------
1964-05-20 11.4 17.8 -1.9--- 1.0 2.0---- 0.0------------
1964-05-21 12.8 20.2 2.0--- 0.0 1.7---- 0.0------------
1964-05-22 13.4 20.1 3.1--- 1.3 1.7---- 0.0------------
1964-05-23 14.5 20.7 3.6--- 0.0 1.7---- 0.0------------
1964-05-24 16.8 23.2 5.2--- 1.0 1.0---- 0.0------------
1964-05-25 17.1 22.7 5.3--- 2.7 2.3---- 0.0------------
1964-05-26 17.5 23.4 7.2--- 1.3 1.7---- 0.0------------
1964-05-27 18.1 25.4 7.0--- 2.3 1.7---- 0.0------------
1964-05-28 19.2 26.1 8.0--- 5.3 1.3---- 0.0------------
1964-05-29 14.4 18.5 12.5--- 6.3 3.0---- 2.5------------
1964-05-30 18.0 24.2 9.5--- 5.0 1.0---- 0.0------------
1964-05-31 15.9 22.4 7.9--- 3.7 1.3---- 0.0------------
1964-06-01 17.9 28.5 7.1--- 4.7 2.3---- 3.0------------
1964-06-02 19.4 31.3 7.1--- 3.3 2.7---- 9.3------------
1964-06-03 20.0 25.6 14.7--- 3.0 2.0---- 0.0------------
1964-06-04 15.6 21.2 12.4--- 2.0 3.0---- 0.0------------
1964-06-05 19.0 25.7 6.2--- 0.3 1.0---- 0.0------------
1964-06-06 19.1 28.2 10.1--- 3.0 2.0---- 0.0------------
1964-06-07 17.7 24.4 9.4--- 2.0 2.3---- 0.0------------
1964-06-08 19.1 23.2 12.4--- 6.3 2.7---- 1.0------------
1964-06-09 15.1 21.2 10.8--- 4.3 2.0---- 0.0------------
1964-06-10 17.6 25.1 7.3--- 0.3 1.7---- 0.0------------
1964-06-11 21.7 30.3 8.6--- 0.7 1.3---- 0.0------------
1964-06-12 21.5 31.7 10.4--- 3.0 1.7---- 0.0------------
1964-06-13 25.0 32.8 10.5--- 0.7 1.0---- 0.0------------
149.6 ms

 

Źródłem pochodzenia danych jest Instytut Meteorologii i Gospodarki Wodnej – Państwowy Instytut Badawczy. Dane Instytutu Meteorologii i Gospodarki Wodnej – Państwowego Instytutu Badawczego zostały przetworzone.

Dane źródłowe można odnaleźć na stronie https://dane.imgw.pl